createdAt,value
2023-01-13T00:02:48.881Z,100969.31
2023-01-13T00:06:01.634Z,100973.69
2023-01-13T00:09:05.164Z,100958.59
2023-01-13T00:12:08.867Z,100965.66
2023-01-13T00:15:12.334Z,100910.94
2023-01-13T00:18:16.117Z,100962.06
2023-01-13T00:21:23.889Z,100952.31
2023-01-13T00:24:30.626Z,100961.16
2023-01-13T00:27:34.611Z,100948.72
2023-01-13T00:30:38.777Z,100958.44
2023-01-13T00:33:42.514Z,100960.16
2023-01-13T00:36:46.274Z,100955.72
2023-01-13T00:39:53.692Z,100953.06
2023-01-13T00:43:16.906Z,100950.31
2023-01-13T00:46:24.919Z,100953.00
2023-01-13T00:49:31.369Z,100956.50
2023-01-13T00:52:39.204Z,100956.47
2023-01-13T00:55:44.037Z,100942.37
2023-01-13T00:58:49.524Z,100953.84
2023-01-13T01:01:53.368Z,100960.03
2023-01-13T01:04:56.804Z,100957.38
2023-01-13T01:08:01.189Z,100960.91
2023-01-13T01:11:09.992Z,100944.12
2023-01-13T01:14:16.162Z,100951.13
2023-01-13T01:17:21.730Z,100949.34
2023-01-13T01:20:25.857Z,100935.22
2023-01-13T01:23:30.167Z,100929.94
2023-01-13T01:26:37.955Z,100938.84
2023-01-13T01:29:41.229Z,100942.41
2023-01-13T01:32:45.806Z,100933.56
2023-01-13T01:35:49.121Z,100929.13
2023-01-13T01:38:58.778Z,100925.59
2023-01-13T01:42:23.722Z,100912.38
2023-01-13T01:45:30.794Z,100923.84
2023-01-13T01:48:41.467Z,100920.34
2023-01-13T01:52:09.342Z,100915.06
2023-01-13T01:55:22.866Z,100917.69
2023-01-13T01:58:36.531Z,100916.78
2023-01-13T02:01:41.511Z,100914.06
2023-01-13T02:04:51.809Z,100907.78
2023-01-13T02:07:58.252Z,100915.72
2023-01-13T02:11:01.821Z,100905.03
2023-01-13T02:14:05.167Z,100904.13
2023-01-13T02:17:20.782Z,100904.13
2023-01-13T02:20:34.403Z,100893.47
2023-01-13T02:24:24.679Z,100899.62
2023-01-13T02:27:37.332Z,100895.22
2023-01-13T02:31:04.631Z,100890.81
2023-01-13T02:34:14.490Z,100892.56
2023-01-13T02:37:28.870Z,100890.84
2023-01-13T02:40:35.301Z,100890.84
2023-01-13T02:43:59.300Z,100881.09
2023-01-13T02:47:09.520Z,100890.84
2023-01-13T02:50:18.524Z,100872.31
2023-01-13T02:53:46.560Z,100867.91
2023-01-13T02:56:51.409Z,100874.00
2023-01-13T02:59:55.950Z,100864.22
2023-01-13T03:03:01.674Z,100862.41
2023-01-13T03:06:30.129Z,100871.28
2023-01-13T03:09:43.241Z,100864.22
2023-01-13T03:12:56.132Z,100867.75
2023-01-13T03:16:06.321Z,100856.19
2023-01-13T03:19:25.288Z,100860.66
2023-01-13T03:22:38.129Z,100865.06
2023-01-13T03:25:54.299Z,100869.44
2023-01-13T03:29:15.434Z,100834.97
2023-01-13T03:32:45.611Z,100856.03
2023-01-13T03:35:57.432Z,100847.13
2023-01-13T03:39:10.491Z,100855.94
2023-01-13T03:42:20.826Z,100835.66
2023-01-13T03:45:24.052Z,100846.97
2023-01-13T03:48:30.802Z,100843.50
2023-01-13T03:51:36.273Z,100836.53
2023-01-13T03:54:46.949Z,100840.91
2023-01-13T03:58:14.424Z,100845.34
2023-01-13T04:01:30.991Z,100847.97
2023-01-13T04:04:44.178Z,100832.09
2023-01-13T04:08:18.867Z,100844.38
2023-01-13T04:11:52.084Z,100822.38
2023-01-13T04:14:56.553Z,100856.75
2023-01-13T04:18:20.974Z,100856.72
2023-01-13T04:21:24.179Z,100849.66
2023-01-13T04:24:28.612Z,100850.50
2023-01-13T04:27:31.855Z,100845.19
2023-01-13T04:30:42.228Z,100851.38
2023-01-13T04:33:51.066Z,100854.13
2023-01-13T04:36:54.683Z,100864.78
2023-01-13T04:39:58.707Z,100857.63
2023-01-13T04:43:03.404Z,100859.47
2023-01-13T04:46:10.332Z,100860.34
2023-01-13T04:49:14.173Z,100866.53
2023-01-13T04:52:20.477Z,100849.75
2023-01-13T04:55:25.450Z,100862.12
2023-01-13T04:58:29.990Z,100863.91
2023-01-13T05:01:38.876Z,100862.19
2023-01-13T05:04:42.360Z,100863.03
2023-01-13T05:07:46.923Z,100861.22
2023-01-13T05:10:50.482Z,100868.31
2023-01-13T05:14:13.114Z,100871.91
2023-01-13T05:17:22.909Z,100872.78
2023-01-13T05:20:26.629Z,100865.66
2023-01-13T05:23:48.526Z,100858.53
2023-01-13T05:26:52.060Z,100870.94
2023-01-13T05:29:56.981Z,100876.25
2023-01-13T05:33:00.700Z,100853.28
2023-01-13T05:36:06.008Z,100842.75
2023-01-13T05:39:10.707Z,100868.22
2023-01-13T05:42:32.432Z,100877.06
2023-01-13T05:45:35.895Z,100872.66
2023-01-13T05:48:41.710Z,100869.12
2023-01-13T05:51:45.575Z,100878.84
2023-01-13T05:54:48.798Z,100877.06
2023-01-13T05:57:54.253Z,100873.53
2023-01-13T06:01:06.448Z,100881.47
2023-01-13T06:04:10.144Z,100880.66
2023-01-13T06:07:13.462Z,100862.94
2023-01-13T06:10:19.148Z,100879.72
2023-01-13T06:13:25.895Z,100884.19
2023-01-13T06:16:29.739Z,100870.87
2023-01-13T06:19:33.061Z,100880.66
2023-01-13T06:22:40.028Z,100874.47
2023-01-13T06:26:09.538Z,100885.13
2023-01-13T06:29:15.153Z,100881.56
2023-01-13T06:32:33.189Z,100893.09
2023-01-13T06:35:38.770Z,100881.59
2023-01-13T06:38:45.563Z,100883.31
2023-01-13T06:42:11.252Z,100886.03
2023-01-13T06:45:14.882Z,100885.16
2023-01-13T06:48:22.262Z,100896.62
2023-01-13T06:51:26.280Z,100894.00
2023-01-13T06:54:34.827Z,100894.87
2023-01-13T06:57:55.411Z,100892.16
2023-01-13T07:01:02.567Z,100902.75
2023-01-13T07:04:06.085Z,100900.00
2023-01-13T07:07:09.560Z,100907.94
2023-01-13T07:10:22.379Z,100900.75
2023-01-13T07:13:44.710Z,100909.66
2023-01-13T07:16:49.928Z,100914.13
2023-01-13T07:19:54.748Z,100913.25
2023-01-13T07:22:58.565Z,100899.88
2023-01-13T07:26:02.327Z,100904.25
2023-01-13T07:29:05.758Z,100905.97
2023-01-13T07:32:11.469Z,100907.75
2023-01-13T07:35:15.766Z,100906.69
2023-01-13T07:38:20.754Z,100909.25
2023-01-13T07:41:43.051Z,100909.22
2023-01-13T07:44:46.512Z,100906.53
2023-01-13T07:47:54.041Z,100892.38
2023-01-13T07:51:02.864Z,100901.16
2023-01-13T07:54:06.712Z,100911.66
2023-01-13T07:57:10.477Z,100917.66
2023-01-13T08:00:14.415Z,100897.19
2023-01-13T08:03:17.998Z,100911.19
2023-01-13T08:06:21.356Z,100918.37
2023-01-13T08:09:25.250Z,100908.03
2023-01-13T08:12:52.806Z,100931.84
2023-01-13T08:16:03.208Z,100942.44
2023-01-13T08:19:06.353Z,100941.63
2023-01-13T08:22:10.998Z,100931.72
2023-01-13T08:25:14.119Z,100932.69
2023-01-13T08:28:18.178Z,100935.31
2023-01-13T08:31:21.994Z,100939.63
2023-01-13T08:34:25.599Z,100944.84
2023-01-13T08:37:29.405Z,100934.97
2023-01-13T08:40:33.379Z,100942.09
2023-01-13T08:43:36.494Z,100950.06
2023-01-13T08:46:41.597Z,100952.66
2023-01-13T08:49:44.850Z,100957.00
2023-01-13T08:52:48.421Z,100954.25
2023-01-13T08:55:51.637Z,100947.19
2023-01-13T08:58:58.505Z,100962.13
2023-01-13T09:02:01.994Z,100962.94
2023-01-13T09:05:09.708Z,100953.09
2023-01-13T09:08:13.165Z,100945.97
2023-01-13T09:11:44.369Z,100950.38
2023-01-13T09:14:47.959Z,100938.06
2023-01-13T09:17:52.311Z,100928.97
2023-01-13T09:20:57.318Z,100930.66
2023-01-13T09:24:00.727Z,100932.19
2023-01-13T09:27:08.549Z,100920.44
2023-01-13T09:30:12.508Z,100904.41
2023-01-13T09:33:34.801Z,100929.84
2023-01-13T09:36:38.304Z,100929.69
2023-01-13T09:39:41.598Z,100926.06
2023-01-13T09:43:19.770Z,100932.22
2023-01-13T09:46:52.743Z,100930.16
2023-01-13T09:50:07.184Z,100933.31
2023-01-13T09:53:20.157Z,100928.41
2023-01-13T09:56:25.472Z,100920.94
2023-01-13T09:59:37.641Z,100918.00
2023-01-13T10:02:47.129Z,100928.44
2023-01-13T10:06:09.327Z,100914.87
2023-01-13T10:09:23.140Z,100912.06
2023-01-13T10:12:46.256Z,100911.78
2023-01-13T10:16:11.987Z,100918.59
2023-01-13T10:19:30.270Z,100912.31
2023-01-13T10:22:47.511Z,100921.28
2023-01-13T10:26:01.208Z,100915.66
2023-01-13T10:29:21.838Z,100904.28
2023-01-13T10:32:25.309Z,100906.59
2023-01-13T10:35:53.632Z,100887.81
2023-01-13T10:39:15.493Z,100891.75
2023-01-13T10:42:22.216Z,100892.38
2023-01-13T10:45:26.121Z,100872.25
2023-01-13T10:48:53.125Z,100877.13
2023-01-13T10:51:56.742Z,100879.75
2023-01-13T10:55:01.169Z,100871.75
2023-01-13T10:58:20.192Z,100878.31
2023-01-13T11:01:26.665Z,100870.06
2023-01-13T11:04:43.473Z,100861.97
2023-01-13T11:07:54.611Z,100845.34
2023-01-13T11:10:59.941Z,100871.44
2023-01-13T11:14:26.717Z,100866.38
2023-01-13T11:17:53.726Z,100852.44
2023-01-13T11:21:00.201Z,100870.72
2023-01-13T11:24:37.422Z,100852.09
2023-01-13T11:27:51.204Z,100856.78
2023-01-13T11:31:13.926Z,100844.16
2023-01-13T11:34:31.914Z,100828.97
2023-01-13T11:37:42.168Z,100829.03
2023-01-13T11:40:51.048Z,100830.88
2023-01-13T11:44:06.300Z,100821.03
2023-01-13T11:47:12.296Z,100819.03
2023-01-13T11:50:37.201Z,100800.47
2023-01-13T11:53:54.171Z,100791.41
2023-01-13T11:57:36.132Z,100769.31
2023-01-13T12:01:23.696Z,100782.22
2023-01-13T12:04:35.483Z,100784.84
2023-01-13T12:07:45.122Z,100775.00
2023-01-13T12:10:57.539Z,100770.50
2023-01-13T12:14:32.325Z,100770.62
2023-01-13T12:17:52.946Z,100774.50
2023-01-13T12:21:25.949Z,100781.56
2023-01-13T12:24:41.534Z,100785.91
2023-01-13T12:27:52.081Z,100772.53
2023-01-13T12:31:00.938Z,100784.84
2023-01-13T12:34:13.163Z,100785.72
2023-01-13T12:37:34.930Z,100793.66
2023-01-13T12:40:59.125Z,100798.78
2023-01-13T12:44:22.337Z,100788.09
2023-01-13T12:47:37.649Z,100780.03
2023-01-13T12:50:43.170Z,100778.00
2023-01-13T12:53:46.537Z,100776.37
2023-01-13T12:56:50.180Z,100767.47
2023-01-13T13:00:06.250Z,100770.06
2023-01-13T13:03:12.724Z,100783.44
2023-01-13T13:06:29.493Z,100791.50
2023-01-13T13:09:40.752Z,100785.38
2023-01-13T13:13:02.774Z,100781.62
2023-01-13T13:16:29.507Z,100776.25
2023-01-13T13:19:32.897Z,100775.09
2023-01-13T13:22:50.455Z,100771.34
2023-01-13T13:26:21.808Z,100781.97
2023-01-13T13:29:35.329Z,100779.25
2023-01-13T13:33:02.732Z,100779.37
2023-01-13T13:36:14.299Z,100787.41
2023-01-13T13:39:41.605Z,100798.81
2023-01-13T13:43:13.581Z,100786.31
2023-01-13T13:46:49.441Z,100778.34
2023-01-13T13:49:56.984Z,100784.56
2023-01-13T13:53:08.527Z,100790.91
2023-01-13T13:56:26.514Z,100790.16
2023-01-13T13:59:30.986Z,100794.66
2023-01-13T14:02:37.822Z,100788.44
2023-01-13T14:05:56.772Z,100781.50
2023-01-13T14:09:03.506Z,100791.28
2023-01-13T14:12:21.411Z,100778.81
2023-01-13T14:15:33.472Z,100785.19
2023-01-13T14:18:48.331Z,100791.38
2023-01-13T14:21:51.556Z,100779.94
2023-01-13T14:24:58.604Z,100788.66
2023-01-13T14:28:14.174Z,100784.22
2023-01-13T14:31:22.317Z,100788.69
2023-01-13T14:34:32.084Z,100794.06
2023-01-13T14:37:42.032Z,100800.28
2023-01-13T14:40:46.954Z,100800.28
2023-01-13T14:43:54.312Z,100804.81
2023-01-13T14:47:05.264Z,100808.38
2023-01-13T14:50:09.278Z,100801.41
2023-01-13T14:53:29.579Z,100806.59
2023-01-13T14:56:42.719Z,100795.81
2023-01-13T14:59:55.508Z,100794.13
2023-01-13T15:02:59.123Z,100800.28
2023-01-13T15:06:02.688Z,100797.56
2023-01-13T15:09:12.861Z,100792.19
2023-01-13T15:12:29.534Z,100779.69
2023-01-13T15:15:39.676Z,100784.00
2023-01-13T15:18:43.276Z,100781.31
2023-01-13T15:21:46.812Z,100788.44
2023-01-13T15:24:50.298Z,100795.63
2023-01-13T15:27:53.946Z,100805.41
2023-01-13T15:31:00.807Z,100792.03
2023-01-13T15:34:04.526Z,100795.63
2023-01-13T15:37:09.439Z,100793.78
2023-01-13T15:40:22.544Z,100791.97
2023-01-13T15:43:44.392Z,100793.69
2023-01-13T15:46:48.414Z,100797.22
2023-01-13T15:49:51.626Z,100806.09
2023-01-13T15:52:55.374Z,100800.72
2023-01-13T15:56:00.124Z,100798.84
2023-01-13T15:59:05.819Z,100808.59
2023-01-13T16:02:18.665Z,100812.16
2023-01-13T16:05:22.186Z,100815.75
2023-01-13T16:08:25.345Z,100823.69
2023-01-13T16:11:29.088Z,100823.69
2023-01-13T16:14:32.253Z,100808.75
2023-01-13T16:17:36.507Z,100809.53
2023-01-13T16:20:41.444Z,100820.09
2023-01-13T16:23:45.240Z,100820.94
2023-01-13T16:26:48.496Z,100811.25
2023-01-13T16:29:53.252Z,100816.50
2023-01-13T16:32:57.054Z,100819.13
2023-01-13T16:36:10.760Z,100816.47
2023-01-13T16:39:22.982Z,100825.34
2023-01-13T16:42:26.640Z,100815.72
2023-01-13T16:45:31.536Z,100837.75
2023-01-13T16:48:35.324Z,100837.75
2023-01-13T16:51:38.653Z,100829.72
2023-01-13T16:54:43.379Z,100825.19
2023-01-13T16:57:46.752Z,100834.13
2023-01-13T17:00:54.271Z,100836.81
2023-01-13T17:03:59.756Z,100834.13
2023-01-13T17:07:12.747Z,100827.06
2023-01-13T17:10:20.824Z,100836.87
2023-01-13T17:13:24.700Z,100834.13
2023-01-13T17:16:29.767Z,100827.03
2023-01-13T17:19:33.752Z,100828.00
2023-01-13T17:22:37.159Z,100836.91
2023-01-13T17:25:41.239Z,100838.72
2023-01-13T17:28:46.886Z,100838.75
2023-01-13T17:31:51.900Z,100832.56
2023-01-13T17:34:56.791Z,100837.91
2023-01-13T17:38:03.140Z,100822.06
2023-01-13T17:41:08.306Z,100847.84
2023-01-13T17:44:15.249Z,100847.88
2023-01-13T17:47:19.389Z,100846.97
2023-01-13T17:50:24.530Z,100851.44
2023-01-13T17:53:30.688Z,100832.91
2023-01-13T17:56:36.032Z,100839.09
2023-01-13T17:59:41.550Z,100839.91
2023-01-13T18:02:47.360Z,100847.03
2023-01-13T18:05:52.624Z,100847.94
2023-01-13T18:08:56.259Z,100844.38
2023-01-13T18:12:02.301Z,100841.78
2023-01-13T18:15:07.759Z,100854.28
2023-01-13T18:18:12.985Z,100848.97
2023-01-13T18:21:44.047Z,100844.56
2023-01-13T18:25:07.288Z,100847.34
2023-01-13T18:28:12.577Z,100845.56
2023-01-13T18:31:16.854Z,100840.28
2023-01-13T18:34:21.434Z,100848.22
2023-01-13T18:37:27.449Z,100853.59
2023-01-13T18:40:35.907Z,100852.78
2023-01-13T18:43:39.584Z,100853.69
2023-01-13T18:46:43.584Z,100859.09
2023-01-13T18:49:47.697Z,100849.28
2023-01-13T18:52:52.178Z,100844.81
2023-01-13T18:55:56.382Z,100852.84
2023-01-13T18:59:02.062Z,100846.69
2023-01-13T19:02:12.387Z,100852.94
2023-01-13T19:05:16.739Z,100853.87
2023-01-13T19:08:21.406Z,100861.94
2023-01-13T19:11:25.198Z,100860.19
2023-01-13T19:14:37.414Z,100862.88
2023-01-13T19:17:41.540Z,100862.88
2023-01-13T19:20:47.850Z,100865.56
2023-01-13T19:23:54.988Z,100862.94
2023-01-13T19:26:59.146Z,100863.81
2023-01-13T19:30:05.409Z,100861.09
2023-01-13T19:33:10.306Z,100867.34
2023-01-13T19:36:14.608Z,100864.66
2023-01-13T19:39:20.307Z,100866.53
2023-01-13T19:42:45.040Z,100883.41
2023-01-13T19:45:55.079Z,100882.50
2023-01-13T19:49:01.377Z,100889.62
2023-01-13T19:52:06.439Z,100896.81
2023-01-13T19:55:12.823Z,100900.34
2023-01-13T19:58:23.654Z,100902.94
2023-01-13T20:01:37.400Z,100905.63
2023-01-13T20:04:44.780Z,100901.13
2023-01-13T20:07:50.881Z,100904.63
2023-01-13T20:11:15.124Z,100903.75
2023-01-13T20:14:20.963Z,100908.19
2023-01-13T20:17:26.714Z,100903.66
2023-01-13T20:20:31.291Z,100908.03
2023-01-13T20:23:36.238Z,100897.34
2023-01-13T20:26:40.775Z,100925.72
2023-01-13T20:29:45.809Z,100943.53
2023-01-13T20:32:50.760Z,100965.75
2023-01-13T20:35:59.177Z,100977.34
2023-01-13T20:39:05.188Z,100961.38
2023-01-13T20:42:45.774Z,100923.66
2023-01-13T20:45:50.058Z,100964.84
2023-01-13T20:48:55.549Z,100954.97
2023-01-13T20:52:00.324Z,100932.66
2023-01-13T20:55:09.403Z,100926.41
2023-01-13T20:58:13.147Z,100930.97
2023-01-13T21:01:18.054Z,100923.88
2023-01-13T21:04:21.931Z,100903.50
2023-01-13T21:07:26.125Z,100908.19
2023-01-13T21:10:30.352Z,100908.56
2023-01-13T21:13:53.563Z,100915.56
2023-01-13T21:16:57.219Z,100917.25
2023-01-13T21:20:01.909Z,100911.16
2023-01-13T21:23:07.952Z,100912.00
2023-01-13T21:26:12.901Z,100905.78
2023-01-13T21:29:16.231Z,100906.69
2023-01-13T21:32:20.300Z,100907.63
2023-01-13T21:35:23.653Z,100924.53
2023-01-13T21:38:27.992Z,100878.72
2023-01-13T21:41:50.709Z,100911.19
2023-01-13T21:45:12.742Z,100917.44
2023-01-13T21:48:15.992Z,100865.25
2023-01-13T21:51:19.707Z,100855.03
2023-01-13T21:54:22.892Z,100870.16
2023-01-13T21:57:28.224Z,100858.91
2023-01-13T22:00:34.195Z,100861.28
2023-01-13T22:03:57.771Z,100883.56
2023-01-13T22:07:04.687Z,100883.63
2023-01-13T22:10:11.904Z,100911.19
2023-01-13T22:13:34.457Z,100934.69
2023-01-13T22:16:41.879Z,100975.31
2023-01-13T22:19:49.717Z,100995.81
2023-01-13T22:22:53.376Z,100993.06
2023-01-13T22:26:04.836Z,101000.25
2023-01-13T22:29:08.485Z,100955.28
2023-01-13T22:32:12.491Z,100993.94
2023-01-13T22:35:16.222Z,100993.06
2023-01-13T22:38:19.577Z,100997.56
2023-01-13T22:41:23.532Z,100985.91
2023-01-13T22:44:27.156Z,100945.09
2023-01-13T22:47:31.483Z,100924.00
2023-01-13T22:50:34.871Z,100951.22
2023-01-13T22:53:39.404Z,100928.28
2023-01-13T22:56:42.716Z,100938.75
2023-01-13T22:59:47.341Z,100928.94
2023-01-13T23:02:50.563Z,100936.09
2023-01-13T23:05:58.744Z,100928.16
2023-01-13T23:09:02.233Z,100932.53
2023-01-13T23:12:06.232Z,100929.88
2023-01-13T23:15:09.905Z,100930.94
2023-01-13T23:18:13.363Z,100938.00
2023-01-13T23:21:22.415Z,100930.06
2023-01-13T23:24:27.996Z,100929.13
2023-01-13T23:27:31.122Z,100917.69
2023-01-13T23:30:35.166Z,100917.81
2023-01-13T23:33:40.953Z,100931.25
2023-01-13T23:36:44.623Z,100921.59
2023-01-13T23:39:47.867Z,100928.00
2023-01-13T23:42:51.585Z,100932.59
2023-01-13T23:46:02.603Z,100932.59
2023-01-13T23:49:06.390Z,100931.66
2023-01-13T23:52:09.506Z,100935.09
2023-01-13T23:55:13.275Z,100941.31
2023-01-13T23:58:16.445Z,100943.97
